Time;durP1;ratioP1;P1;durP2;ratioP2;P2;SDS_P1;SDS_P2;PMS_P1;PMS_P2;Temp;Humidity;BMP_temperature;BMP_pressure;BME280_temperature;BME280_humidity;BME280_pressure;Samples;Min_cycle;Max_cycle;Signal;HPM_P1;HPM_P2
2021/12/04 00:00:22;;;;;;;15.15;9.78;;;;;;;0.77;64.24;100195.23;1801164;78;21050;-71
2021/12/04 00:02:52;;;;;;;15.72;9.35;;;;;;;0.76;64.26;100197.45;1783803;78;22341;-72
2021/12/04 00:05:20;;;;;;;16.12;9.75;;;;;;;0.73;64.32;100202.30;1757677;80;21085;-72
2021/12/04 00:07:46;;;;;;;20.05;10.68;;;;;;;0.74;64.52;100209.63;1754447;80;21560;-71
2021/12/04 00:10:17;;;;;;;14.85;9.83;;;;;;;0.74;64.47;100204.45;1760943;80;21057;-71
2021/12/04 00:12:41;;;;;;;15.50;10.03;;;;;;;0.72;64.55;100204.94;1777928;79;21269;-71
2021/12/04 00:15:08;;;;;;;18.23;10.25;;;;;;;0.70;64.52;100205.47;1777664;79;21145;-71
2021/12/04 00:17:35;;;;;;;15.15;9.38;;;;;;;0.66;64.52;100212.98;1780189;78;21062;-71
2021/12/04 00:20:07;;;;;;;15.85;9.30;;;;;;;0.62;64.75;100217.43;1776540;79;21138;-72
2021/12/04 00:22:34;;;;;;;18.17;9.43;;;;;;;0.58;64.73;100213.77;1766406;80;21623;-71
2021/12/04 00:25:00;;;;;;;13.70;9.00;;;;;;;0.53;64.69;100204.88;1767241;79;21135;-72
2021/12/04 00:27:27;;;;;;;18.50;10.95;;;;;;;0.46;64.63;100204.29;1763807;79;21587;-73
2021/12/04 00:29:53;;;;;;;19.25;10.88;;;;;;;0.44;64.60;100211.71;1741808;80;21058;-72
2021/12/04 00:32:27;;;;;;;17.77;11.40;;;;;;;0.37;64.72;100202.09;1761790;79;21591;-72
2021/12/04 00:34:54;;;;;;;17.75;10.45;;;;;;;0.33;64.71;100201.80;1760184;79;21055;-73
2021/12/04 00:51:03;;;;;;;20.60;11.38;;;;;;;0.03;65.36;100222.81;1763543;79;21716;-73
2021/12/04 00:53:30;;;;;;;18.42;10.58;;;;;;;0.04;65.49;100225.80;1758615;80;21560;-73
2021/12/04 00:55:56;;;;;;;21.73;12.20;;;;;;;0.03;65.52;100224.11;1765048;79;21057;-72
2021/12/04 00:58:23;;;;;;;21.90;11.28;;;;;;;0.02;65.36;100222.45;1762678;79;21528;-73
2021/12/04 01:00:49;;;;;;;18.98;11.45;;;;;;;0.02;65.36;100222.45;1759321;79;21591;-73
2021/12/04 01:03:16;;;;;;;21.00;11.75;;;;;;;0.02;65.57;100219.86;1733782;81;20987;-73
2021/12/04 01:05:42;;;;;;;17.27;10.60;;;;;;;0.01;65.57;100218.62;1737519;80;21666;-73
2021/12/04 01:08:09;;;;;;;18.70;9.88;;;;;;;-0.01;65.57;100216.92;1758428;79;21053;-73
2021/12/04 01:10:36;;;;;;;16.80;9.45;;;;;;;-0.02;65.54;100219.14;1746827;80;21025;-73
2021/12/04 01:13:10;;;;;;;15.40;10.00;;;;;;;-0.05;65.62;100219.68;1759847;79;21073;-73
2021/12/04 01:15:31;;;;;;;16.48;9.53;;;;;;;-0.04;65.69;100211.03;1760699;80;21344;-73
2021/12/04 01:17:58;;;;;;;15.32;9.15;;;;;;;-0.05;65.65;100208.04;1765999;80;21132;-73
2021/12/04 01:20:25;;;;;;;18.45;10.38;;;;;;;-0.10;65.57;100206.95;1761696;80;21025;-73
2021/12/04 01:22:52;;;;;;;15.08;8.83;;;;;;;-0.10;65.57;100206.95;1763974;80;21073;-73
2021/12/04 01:25:18;;;;;;;15.23;9.73;;;;;;;-0.14;65.56;100213.13;1764831;80;21518;-72
2021/12/04 01:27:46;;;;;;;14.55;8.83;;;;;;;-0.21;65.74;100206.05;1761097;80;23605;-73
2021/12/04 01:30:12;;;;;;;16.20;9.90;;;;;;;-0.26;66.08;100214.44;1742167;80;21108;-73
2021/12/04 01:32:39;;;;;;;14.47;8.88;;;;;;;-0.27;66.07;100214.48;1760231;81;21050;-73
2021/12/04 01:35:07;;;;;;;16.42;9.78;;;;;;;-0.26;66.10;100220.90;1761180;81;21120;-73
2021/12/04 01:37:33;;;;;;;15.58;9.43;;;;;;;-0.24;66.17;100217.80;1756161;80;21097;-73
2021/12/04 01:40:00;;;;;;;15.85;9.13;;;;;;;-0.26;66.01;100222.20;1762533;80;21050;-74
2021/12/04 01:42:28;;;;;;;14.23;8.75;;;;;;;-0.23;66.09;100222.55;1761309;80;21080;-73
2021/12/04 01:44:55;;;;;;;14.80;8.28;;;;;;;-0.22;66.13;100225.08;1761349;79;21056;-72
2021/12/04 01:47:22;;;;;;;15.60;9.28;;;;;;;-0.21;66.08;100231.91;1760615;80;21065;-73
2021/12/04 01:49:50;;;;;;;16.12;9.68;;;;;;;-0.20;66.08;100232.31;1763774;80;21050;-73
2021/12/04 01:52:18;;;;;;;19.30;10.53;;;;;;;-0.19;66.01;100228.81;1762470;80;21172;-73
2021/12/04 01:54:46;;;;;;;15.65;10.03;;;;;;;-0.14;65.85;100236.86;1756801;81;21060;-74
2021/12/04 01:57:18;;;;;;;17.17;9.83;;;;;;;-0.14;65.80;100240.28;1762070;80;21041;-73
2021/12/04 01:59:43;;;;;;;14.50;9.43;;;;;;;-0.15;65.68;100242.49;1764023;80;21613;-73
2021/12/04 02:02:10;;;;;;;15.58;9.30;;;;;;;-0.18;65.67;100242.61;1762500;80;21099;-73
2021/12/04 02:04:38;;;;;;;15.13;9.10;;;;;;;-0.22;65.66;100247.05;1765421;79;21120;-74
2021/12/04 02:07:04;;;;;;;16.15;9.05;;;;;;;-0.26;65.74;100257.10;1762896;79;21119;-74
2021/12/04 02:09:33;;;;;;;16.60;9.55;;;;;;;-0.33;65.84;100254.82;1770061;79;21060;-73
2021/12/04 02:12:04;;;;;;;18.05;8.80;;;;;;;-0.34;66.05;100257.83;1767541;79;21084;-73
2021/12/04 02:14:30;;;;;;;15.80;9.85;;;;;;;-0.35;66.07;100252.72;1739991;79;21120;-73
2021/12/04 02:16:57;;;;;;;15.18;9.90;;;;;;;-0.29;66.11;100258.50;1758640;79;21841;-73
2021/12/04 02:19:24;;;;;;;12.98;8.75;;;;;;;-0.27;66.06;100256.73;1734122;80;21113;-75
2021/12/04 02:21:50;;;;;;;14.00;8.80;;;;;;;-0.28;65.95;100253.73;1736682;81;21605;-74
2021/12/04 02:24:16;;;;;;;15.63;9.13;;;;;;;-0.31;65.94;100260.31;1764372;79;21058;-72
2021/12/04 02:26:43;;;;;;;18.23;10.13;;;;;;;-0.34;65.99;100253.95;1753375;79;21509;-74
2021/12/04 02:29:10;;;;;;;18.17;9.75;;;;;;;-0.36;66.10;100255.77;1722855;81;21121;-73
2021/12/04 02:31:38;;;;;;;13.83;8.95;;;;;;;-0.37;65.80;100259.23;1741040;79;21478;-74
2021/12/04 02:34:06;;;;;;;14.78;9.23;;;;;;;-0.38;65.99;100249.81;1761566;79;21085;-73
2021/12/04 02:36:32;;;;;;;16.02;9.55;;;;;;;-0.38;65.95;100248.52;1766363;79;21057;-74
2021/12/04 02:38:59;;;;;;;14.15;8.65;;;;;;;-0.40;65.98;100254.20;1732422;81;21123;-73
2021/12/04 02:41:25;;;;;;;15.63;8.83;;;;;;;-0.43;66.06;100254.31;1757792;79;21383;-74
2021/12/04 02:43:51;;;;;;;13.78;8.85;;;;;;;-0.46;66.05;100253.95;1762672;79;21116;-73
2021/12/04 02:46:18;;;;;;;13.93;8.65;;;;;;;-0.49;66.06;100255.35;1732231;79;21117;-74
2021/12/04 02:48:46;;;;;;;17.70;9.08;;;;;;;-0.51;66.19;100257.62;1763278;79;21105;-74
2021/12/04 02:51:15;;;;;;;18.15;9.43;;;;;;;-0.51;66.18;100264.08;1764324;79;21116;-72
2021/12/04 02:53:42;;;;;;;13.22;8.00;;;;;;;-0.57;66.26;100263.41;1731286;81;21097;-75
2021/12/04 02:56:11;;;;;;;16.52;8.93;;;;;;;-0.64;66.33;100254.19;1763667;79;21085;-75
2021/12/04 02:58:39;;;;;;;16.67;9.60;;;;;;;-0.67;66.41;100254.72;1733971;79;21085;-74
2021/12/04 03:01:05;;;;;;;15.78;9.18;;;;;;;-0.70;66.60;100260.86;1765320;79;21053;-75
2021/12/04 03:03:32;;;;;;;17.80;8.88;;;;;;;-0.67;66.64;100259.89;1768627;79;21101;-74
2021/12/04 03:05:58;;;;;;;13.28;9.15;;;;;;;-0.71;66.61;100252.70;1772569;79;21353;-74
2021/12/04 03:08:25;;;;;;;13.83;9.23;;;;;;;-0.72;66.64;100245.87;1779674;79;21042;-75
2021/12/04 03:10:52;;;;;;;16.12;8.70;;;;;;;-0.73;66.73;100245.46;1779494;79;21030;-75
2021/12/04 03:13:20;;;;;;;14.58;8.33;;;;;;;-0.76;66.60;100248.15;1751599;79;21529;-75
2021/12/04 03:15:56;;;;;;;15.55;9.70;;;;;;;-0.78;66.78;100242.20;1775923;79;21051;-69
2021/12/04 03:18:16;;;;;;;13.80;8.40;;;;;;;-0.83;66.88;100241.06;1782974;79;21142;-72
2021/12/04 03:20:45;;;;;;;13.20;8.25;;;;;;;-0.96;67.34;100234.20;1756404;78;21030;-73
2021/12/04 03:23:25;;;;;;;15.23;9.30;;;;;;;-0.99;67.16;100235.60;1808116;78;21085;-73
2021/12/04 03:25:49;;;;;;;16.85;9.53;;;;;;;-0.99;67.16;100235.60;1753183;79;21081;-74
2021/12/04 03:28:16;;;;;;;17.75;9.08;;;;;;;-1.00;67.43;100241.65;1808744;77;21054;-73
2021/12/04 03:30:48;;;;;;;16.65;9.35;;;;;;;-1.05;67.53;100246.13;1747146;80;22592;-71
2021/12/04 03:41:07;;;;;;;18.15;9.48;;;;;;;-1.03;67.57;100264.99;1778987;77;21711;-71
2021/12/04 03:43:34;;;;;;;16.23;9.33;;;;;;;-1.02;67.61;100264.11;1780770;78;21132;-72
2021/12/04 03:46:02;;;;;;;13.88;8.50;;;;;;;-0.99;67.64;100276.09;1763245;80;21027;-72
2021/12/04 03:51:00;;;;;;;13.83;8.65;;;;;;;-1.00;67.39;100280.39;1781885;78;21042;-73
2021/12/04 03:53:27;;;;;;;16.05;8.40;;;;;;;-1.01;67.38;100278.72;1782694;78;21109;-76
2021/12/04 03:55:53;;;;;;;13.80;8.85;;;;;;;-1.03;67.44;100278.37;1766149;80;21656;-70
2021/12/04 03:58:20;;;;;;;15.83;9.03;;;;;;;-1.03;67.32;100282.23;1785364;78;21085;-74
2021/12/04 04:00:47;;;;;;;14.95;8.73;;;;;;;-1.05;67.19;100277.13;1771340;78;21108;-75
2021/12/04 04:03:14;;;;;;;13.80;7.55;;;;;;;-1.05;67.19;100277.13;1765341;80;21106;-77
2021/12/04 04:05:41;;;;;;;15.23;8.13;;;;;;;-1.03;67.28;100278.37;1774852;79;21087;-71
2021/12/04 04:08:10;;;;;;;15.05;8.75;;;;;;;-1.06;67.29;100274.59;1766805;80;22264;-69
2021/12/04 04:10:36;;;;;;;14.68;9.40;;;;;;;-1.05;67.33;100277.13;1766070;79;21647;-65
2021/12/04 04:13:03;;;;;;;15.28;8.33;;;;;;;-1.05;67.50;100277.13;1766989;79;21038;-70
2021/12/04 04:15:30;;;;;;;18.95;8.25;;;;;;;-1.05;67.50;100277.13;1766303;79;21676;-73
2021/12/04 04:17:57;;;;;;;13.18;8.33;;;;;;;-0.99;67.37;100273.05;1767705;80;22163;-69
2021/12/04 04:21:18;;;;;;;14.73;8.23;;;;;;;-0.94;67.24;100272.45;1869876;74;22653;-69
2021/12/04 04:23:45;;;;;;;14.98;9.18;;;;;;;-0.95;67.09;100276.38;1836497;76;20920;-70
2021/12/04 04:26:12;;;;;;;18.70;7.62;;;;;;;-0.96;66.94;100272.95;1833993;75;21167;-70
2021/12/04 04:28:40;;;;;;;16.40;8.15;;;;;;;-0.90;66.94;100285.27;1838967;75;20946;-69
2021/12/04 04:31:09;;;;;;;16.60;8.43;;;;;;;-0.90;66.84;100280.09;1847414;75;20958;-69
2021/12/04 04:33:40;;;;;;;13.90;8.05;;;;;;;-0.87;66.76;100273.53;1831129;76;21092;-69
2021/12/04 04:36:21;;;;;;;15.10;8.70;;;;;;;-0.84;66.60;100272.11;1837862;77;20966;-69
2021/12/04 05:00:34;;;;;;;15.78;8.60;;;;;;;-0.64;65.75;100302.00;1842474;75;21056;-71
2021/12/04 05:11:14;;;;;;;13.40;8.13;;;;;;;-0.61;65.47;100304.45;1840497;77;21081;-70
2021/12/04 05:13:39;;;;;;;14.33;8.25;;;;;;;-0.57;65.26;100303.47;1841337;75;20971;-70
2021/12/04 05:16:17;;;;;;;15.90;7.97;;;;;;;-0.57;65.26;100303.47;1839885;76;21073;-71
2021/12/04 05:18:59;;;;;;;13.95;7.80;;;;;;;-0.52;65.09;100304.60;1840892;75;21108;-70
2021/12/04 05:21:20;;;;;;;18.20;7.37;;;;;;;-0.52;65.09;100304.60;1840029;76;21065;-72
2021/12/04 05:23:54;;;;;;;17.73;7.08;;;;;;;-0.54;65.14;100315.88;1839045;76;21022;-70
2021/12/04 05:26:27;;;;;;;15.95;7.83;;;;;;;-0.57;65.06;100314.27;1845121;76;21092;-72
2021/12/04 05:28:58;;;;;;;14.30;7.97;;;;;;;-0.58;64.97;100317.73;1849244;75;21018;-70
2021/12/04 05:31:25;;;;;;;13.65;8.08;;;;;;;-0.60;65.03;100320.37;1842555;76;21189;-73
2021/12/04 05:33:52;;;;;;;15.30;7.85;;;;;;;-0.60;64.96;100321.66;1839800;76;21053;-72
2021/12/04 05:36:18;;;;;;;15.35;8.63;;;;;;;-0.61;64.99;100323.00;1815701;77;21053;-70
2021/12/04 05:38:45;;;;;;;13.95;8.23;;;;;;;-0.61;64.98;100326.42;1839121;76;21067;-76
2021/12/04 05:41:12;;;;;;;14.38;8.55;;;;;;;-0.58;64.68;100331.95;1832608;76;21709;-70
2021/12/04 05:43:39;;;;;;;15.43;8.65;;;;;;;-0.59;64.66;100331.54;1820881;77;20991;-72
2021/12/04 05:46:14;;;;;;;16.42;8.23;;;;;;;-0.59;64.62;100334.12;1837482;76;21075;-69
2021/12/04 05:56:20;;;;;;;13.93;8.08;;;;;;;-0.54;64.71;100351.61;1847079;76;21804;-68
2021/12/04 05:58:47;;;;;;;15.55;8.65;;;;;;;-0.47;64.51;100354.83;1840898;76;21061;-69
2021/12/04 06:01:15;;;;;;;15.70;8.48;;;;;;;-0.45;64.34;100355.18;1821749;77;20998;-69
2021/12/04 06:03:42;;;;;;;15.80;9.88;;;;;;;-0.43;64.20;100357.72;1840485;76;21018;-69
2021/12/04 06:06:08;;;;;;;15.48;8.03;;;;;;;-0.41;63.80;100354.16;1837817;77;21049;-68
2021/12/04 06:08:35;;;;;;;13.32;8.40;;;;;;;-0.39;63.74;100357.98;1840436;76;21141;-72
2021/12/04 06:11:02;;;;;;;16.40;9.03;;;;;;;-0.36;63.56;100358.34;1837407;76;21061;-66
2021/12/04 06:13:29;;;;;;;15.10;8.05;;;;;;;-0.38;63.56;100359.69;1842281;76;21057;-68
2021/12/04 06:15:56;;;;;;;15.70;8.90;;;;;;;-0.39;63.56;100364.02;1838888;75;21101;-68
2021/12/04 06:18:23;;;;;;;16.37;9.20;;;;;;;-0.39;63.46;100367.03;1837070;76;21116;-70
2021/12/04 06:23:35;;;;;;;13.75;8.68;;;;;;;-0.31;63.53;100366.32;1796002;77;21541;-69
2021/12/04 06:26:02;;;;;;;13.50;7.58;;;;;;;-0.28;63.45;100361.51;1837240;76;21077;-70
2021/12/04 06:28:29;;;;;;;14.55;9.10;;;;;;;-0.27;63.38;100366.63;1832999;76;21100;-70
2021/12/04 06:30:58;;;;;;;18.60;8.60;;;;;;;-0.30;63.54;100366.73;1838599;76;21101;-69
2021/12/04 06:33:24;;;;;;;15.78;9.33;;;;;;;-0.35;63.75;100368.64;1838952;76;21141;-68
2021/12/04 06:35:52;;;;;;;16.75;9.30;;;;;;;-0.35;63.70;100369.93;1836586;76;21537;-66
2021/12/04 06:38:18;;;;;;;15.13;8.23;;;;;;;-0.36;63.74;100368.69;1846027;75;21474;-68
2021/12/04 06:40:45;;;;;;;16.15;9.28;;;;;;;-0.39;63.81;100370.48;1836920;77;21049;-67
2021/12/04 06:43:12;;;;;;;15.98;7.92;;;;;;;-0.44;63.93;100365.06;1840905;76;21014;-68
2021/12/04 06:45:43;;;;;;;15.83;8.75;;;;;;;-0.45;64.17;100370.69;1837359;76;21043;-67
2021/12/04 06:48:12;;;;;;;14.43;8.25;;;;;;;-0.42;64.37;100373.60;1770574;79;21718;-67
2021/12/04 06:50:42;;;;;;;13.40;7.90;;;;;;;-0.42;64.44;100377.05;1772088;79;21500;-69
2021/12/04 06:55:57;;;;;;;13.15;7.62;;;;;;;-0.29;64.27;100385.20;1765367;78;21135;-66
2021/12/04 06:58:24;;;;;;;15.93;8.65;;;;;;;-0.24;64.13;100382.01;1762787;80;21390;-66
2021/12/04 07:00:52;;;;;;;15.18;8.05;;;;;;;-0.21;64.15;100381.07;1762857;79;21670;-65
2021/12/04 07:03:19;;;;;;;15.15;9.25;;;;;;;-0.14;64.16;100384.28;1795235;78;21081;-61
2021/12/04 07:05:45;;;;;;;15.43;8.85;;;;;;;-0.04;64.09;100383.89;1789828;78;21077;-64
2021/12/04 07:08:12;;;;;;;14.13;8.23;;;;;;;0.03;63.91;100385.80;1762816;79;21102;-65
2021/12/04 07:10:39;;;;;;;14.98;8.58;;;;;;;0.14;63.93;100383.67;1746433;79;21029;-65
2021/12/04 07:13:05;;;;;;;13.43;8.50;;;;;;;0.24;63.88;100385.94;1761044;78;21023;-65
2021/12/04 07:15:32;;;;;;;17.02;8.53;;;;;;;0.28;63.41;100384.45;1764141;79;21034;-67
2021/12/04 07:18:00;;;;;;;13.80;8.60;;;;;;;0.28;63.22;100383.61;1764078;80;21132;-66
2021/12/04 07:20:27;;;;;;;18.12;8.90;;;;;;;0.26;63.21;100388.02;1778104;80;21045;-62
2021/12/04 07:22:53;;;;;;;15.15;8.30;;;;;;;0.30;63.20;100389.57;1775335;78;21171;-67
2021/12/04 07:25:20;;;;;;;15.93;9.10;;;;;;;0.33;63.07;100390.30;1772402;78;21053;-67
2021/12/04 07:27:48;;;;;;;16.10;8.90;;;;;;;0.35;62.93;100393.70;1775590;79;21689;-68
2021/12/04 07:30:15;;;;;;;15.60;8.78;;;;;;;0.35;63.10;100398.00;1749986;80;21128;-67
2021/12/04 07:32:42;;;;;;;16.52;8.43;;;;;;;0.39;62.92;100390.96;1777659;78;21041;-67
2021/12/04 07:35:09;;;;;;;12.45;7.35;;;;;;;0.39;62.56;100394.84;1775774;78;21263;-68
2021/12/04 07:37:35;;;;;;;13.68;9.48;;;;;;;0.36;62.53;100397.95;1773464;78;21049;-66
2021/12/04 07:40:04;;;;;;;12.05;8.13;;;;;;;0.32;62.56;100391.64;1774729;78;21040;-68
2021/12/04 07:42:31;;;;;;;17.27;8.78;;;;;;;0.30;62.66;100388.28;1780528;78;21021;-69
2021/12/04 07:44:59;;;;;;;13.88;8.78;;;;;;;0.28;62.73;100397.84;1777883;78;21547;-66
2021/12/04 07:47:26;;;;;;;11.08;7.67;;;;;;;0.28;62.81;100396.55;1778376;79;21120;-67
2021/12/04 07:49:53;;;;;;;20.43;9.28;;;;;;;0.29;62.85;100389.20;1754699;80;21061;-67
2021/12/04 07:52:20;;;;;;;15.48;8.98;;;;;;;0.34;63.05;100393.75;1777356;78;21097;-67
2021/12/04 07:54:48;;;;;;;15.13;8.75;;;;;;;0.41;62.91;100389.19;1779442;78;21048;-66
2021/12/04 07:57:15;;;;;;;17.62;8.95;;;;;;;0.45;62.80;100402.39;1782579;80;21060;-69
2021/12/04 07:59:42;;;;;;;16.97;9.53;;;;;;;0.50;62.75;100400.47;1775985;78;21093;-67
2021/12/04 08:02:09;;;;;;;23.00;10.00;;;;;;;0.54;62.75;100398.17;1776565;79;21044;-67
2021/12/04 08:04:35;;;;;;;17.05;9.75;;;;;;;0.59;62.50;100387.62;1775514;78;21144;-69
2021/12/04 08:07:03;;;;;;;17.05;8.58;;;;;;;0.60;62.33;100395.79;1771797;78;21033;-70
2021/12/04 08:09:30;;;;;;;16.85;9.33;;;;;;;0.58;62.36;100388.54;1782293;78;21053;-67
2021/12/04 08:11:57;;;;;;;14.93;8.48;;;;;;;0.58;62.40;100392.42;1781854;79;23398;-66
2021/12/04 08:14:25;;;;;;;18.73;9.55;;;;;;;0.53;62.22;100391.30;1765522;80;21573;-67
2021/12/04 08:16:51;;;;;;;15.55;9.20;;;;;;;0.54;62.47;100395.59;1769109;79;21113;-66
2021/12/04 08:19:19;;;;;;;16.60;9.93;;;;;;;0.53;62.47;100392.59;1764006;80;21579;-68
2021/12/04 08:21:46;;;;;;;17.98;9.43;;;;;;;0.56;62.35;100386.01;1790664;78;21060;-67
2021/12/04 08:24:12;;;;;;;14.63;9.55;;;;;;;0.59;62.69;100383.73;1802735;78;21121;-66
2021/12/04 08:26:40;;;;;;;16.52;10.23;;;;;;;0.67;62.67;100385.15;1800280;78;21069;-64
2021/12/04 08:29:07;;;;;;;18.90;9.53;;;;;;;0.72;62.37;100386.23;1801288;78;21050;-68
2021/12/04 08:31:33;;;;;;;17.50;10.23;;;;;;;0.78;62.52;100382.59;1801008;78;21502;-69
2021/12/04 08:34:00;;;;;;;16.00;8.48;;;;;;;0.82;62.70;100377.20;1783762;78;21055;-70
2021/12/04 08:36:27;;;;;;;22.15;10.45;;;;;;;0.93;62.55;100378.09;1800560;78;22790;-68
2021/12/04 08:38:53;;;;;;;17.65;9.25;;;;;;;1.00;62.45;100380.81;1804597;77;21054;-69
2021/12/04 08:41:20;;;;;;;14.83;8.98;;;;;;;1.10;62.24;100382.58;1802278;78;21104;-66
2021/12/04 08:43:47;;;;;;;16.57;10.13;;;;;;;1.15;61.94;100381.11;1771109;78;21069;-68
2021/12/04 08:46:14;;;;;;;21.27;9.75;;;;;;;1.22;61.95;100383.83;1805780;77;21121;-67
2021/12/04 08:48:41;;;;;;;19.48;10.30;;;;;;;1.28;61.81;100384.42;1797709;77;21692;-65
2021/12/04 08:51:07;;;;;;;18.12;9.58;;;;;;;1.32;61.66;100386.42;1796887;77;21055;-68
2021/12/04 08:53:34;;;;;;;18.65;10.28;;;;;;;1.35;61.57;100378.52;1749839;80;21066;-60
2021/12/04 08:56:00;;;;;;;16.65;10.00;;;;;;;1.41;61.29;100372.23;1784783;78;21067;-60
2021/12/04 08:58:27;;;;;;;15.93;10.40;;;;;;;1.42;61.42;100365.69;1769552;78;21562;-60
2021/12/04 09:00:58;;;;;;;16.50;8.90;;;;;;;1.51;61.29;100363.15;1773864;78;21118;-60
2021/12/04 09:03:30;;;;;;;19.40;10.18;;;;;;;1.52;61.02;100362.25;1768940;78;21821;-60
2021/12/04 09:05:57;;;;;;;19.75;10.93;;;;;;;1.53;60.94;100359.20;1798333;77;22436;-66
2021/12/04 09:08:26;;;;;;;17.87;10.95;;;;;;;1.52;60.98;100347.98;1798930;78;21569;-63
2021/12/04 09:10:53;;;;;;;20.45;11.15;;;;;;;1.55;61.13;100341.38;1802158;78;21207;-61
2021/12/04 09:13:21;;;;;;;21.12;11.40;;;;;;;1.57;61.11;100350.39;1797597;78;21230;-60
2021/12/04 09:15:48;;;;;;;17.98;9.68;;;;;;;1.60;61.03;100348.50;1800576;78;21027;-61
2021/12/04 09:18:14;;;;;;;19.02;10.80;;;;;;;1.60;60.96;100345.08;1799813;78;21858;-61
2021/12/04 09:20:41;;;;;;;17.98;11.28;;;;;;;1.68;61.09;100342.96;1777134;78;21023;-61
2021/12/04 09:23:14;;;;;;;18.90;10.95;;;;;;;1.77;61.14;100344.34;1761241;79;21079;-61
2021/12/04 09:25:39;;;;;;;20.08;10.95;;;;;;;1.86;60.83;100337.42;1759302;79;21653;-62
2021/12/04 09:33:55;;;;;;;18.10;10.53;;;;;;;1.85;60.56;100335.30;1754266;79;21074;-63
2021/12/04 10:15:28;;;;;;;19.10;11.22;;;;;;;2.92;59.21;100309.55;1595708;87;21116;-61
2021/12/04 10:20:28;;;;;;;19.15;11.08;;;;;;;3.10;58.90;100302.59;1637283;81;21120;-62
2021/12/04 10:23:17;;;;;;;18.25;11.83;;;;;;;3.15;59.07;100303.20;1767287;80;21474;-63
2021/12/04 10:33:46;;;;;;;19.02;10.00;;;;;;;3.47;58.54;100292.91;1778993;78;21109;-63
2021/12/04 10:36:13;;;;;;;14.78;8.85;;;;;;;3.47;57.74;100287.24;1773365;79;21176;-61
2021/12/04 10:38:43;;;;;;;15.25;9.55;;;;;;;3.44;58.05;100282.20;1745412;80;21078;-62
2021/12/04 10:41:12;;;;;;;17.45;8.85;;;;;;;3.45;58.25;100282.59;1734642;79;21362;-63
2021/12/04 10:43:38;;;;;;;16.60;9.38;;;;;;;3.46;57.90;100279.08;1772661;78;21031;-63
2021/12/04 10:46:14;;;;;;;17.23;8.83;;;;;;;3.50;57.98;100289.69;1788547;77;21217;-64
2021/12/04 10:48:46;;;;;;;19.17;10.13;;;;;;;3.52;57.63;100293.52;1763062;78;21525;-65
2021/12/04 10:51:31;;;;;;;17.98;8.65;;;;;;;3.52;57.79;100285.23;1746859;80;22078;-64
2021/12/04 10:53:56;;;;;;;15.03;8.80;;;;;;;3.56;57.79;100281.19;1767318;78;21101;-64
2021/12/04 10:56:52;;;;;;;17.35;9.60;;;;;;;3.58;57.80;100284.09;1738623;80;21101;-64
2021/12/04 10:59:11;;;;;;;12.35;8.65;;;;;;;3.65;57.98;100278.11;1767063;79;22231;-65
2021/12/04 11:01:53;;;;;;;14.98;9.08;;;;;;;3.74;57.83;100276.30;1764867;79;21058;-64
2021/12/04 11:04:28;;;;;;;15.15;8.88;;;;;;;3.77;57.19;100278.75;1766465;79;21164;-65
2021/12/04 11:35:21;;;;;;;17.27;8.95;;;;;;;3.96;56.08;100255.63;1770215;79;21085;-62
2021/12/04 11:40:38;;;;;;;14.45;8.48;;;;;;;4.06;56.78;100247.69;1690435;80;21692;-60
2021/12/04 11:42:47;;;;;;;13.70;8.40;;;;;;;4.16;56.77;100241.05;1795233;79;22420;-63
2021/12/04 11:45:19;;;;;;;11.48;7.47;;;;;;;4.24;56.46;100244.54;1769403;79;21152;-62
2021/12/04 11:47:56;;;;;;;15.68;8.35;;;;;;;4.29;56.20;100237.30;1792812;77;21663;-62
2021/12/04 11:50:26;;;;;;;15.00;6.95;;;;;;;4.36;56.16;100231.28;1793055;78;21059;-61
2021/12/04 11:52:57;;;;;;;12.45;5.85;;;;;;;4.43;56.08;100232.14;1766503;79;21517;-62
2021/12/04 11:55:26;;;;;;;11.48;6.37;;;;;;;4.49;55.65;100232.27;1776250;78;21062;-61
2021/12/04 11:57:54;;;;;;;11.03;5.92;;;;;;;4.53;54.97;100229.85;1771466;79;21101;-61
2021/12/04 12:00:28;;;;;;;13.35;6.62;;;;;;;4.55;54.50;100227.98;1746868;80;21067;-62
2021/12/04 12:03:17;;;;;;;17.15;6.40;;;;;;;4.58;54.37;100230.42;1745587;80;21105;-61
2021/12/04 12:05:53;;;;;;;12.10;6.45;;;;;;;4.59;53.91;100226.91;1766136;78;21155;-62
2021/12/04 12:08:37;;;;;;;11.67;6.20;;;;;;;4.54;53.85;100221.12;1777118;79;21564;-63
2021/12/04 12:11:10;;;;;;;17.60;7.00;;;;;;;4.50;53.57;100226.11;1769998;78;21109;-60
2021/12/04 12:13:46;;;;;;;12.90;5.85;;;;;;;4.44;53.83;100223.41;1770845;79;21085;-61
2021/12/04 12:16:26;;;;;;;11.85;6.72;;;;;;;4.40;53.84;100224.97;1734166;80;21074;-61
2021/12/04 12:19:06;;;;;;;14.15;6.25;;;;;;;4.41;54.27;100227.95;1747681;80;21759;-61
2021/12/04 12:22:15;;;;;;;12.05;6.22;;;;;;;4.49;54.36;100227.50;1770540;78;21117;-62
2021/12/04 12:27:22;;;;;;;12.50;6.67;;;;;;;4.63;53.83;100214.06;1772322;78;21069;-62
2021/12/04 12:33:08;;;;;;;12.28;5.83;;;;;;;4.77;53.45;100210.64;1760207;80;21662;-62
2021/12/04 12:38:57;;;;;;;11.05;5.65;;;;;;;4.87;53.00;100203.13;1773878;80;21132;-61
2021/12/04 12:41:42;;;;;;;8.93;4.65;;;;;;;4.91;52.68;100210.30;1756767;80;21630;-62
2021/12/04 12:44:27;;;;;;;10.50;5.75;;;;;;;5.95;51.59;100204.36;1753634;79;21073;-60
2021/12/04 12:46:57;;;;;;;11.57;6.03;;;;;;;7.04;49.36;100204.23;1755081;81;21146;-62
2021/12/04 12:49:38;;;;;;;14.98;8.30;;;;;;;7.59;48.20;100201.72;1753157;81;21432;-61
2021/12/04 12:52:25;;;;;;;13.98;9.00;;;;;;;7.42;48.57;100206.00;1755617;81;21339;-62
2021/12/04 12:55:08;;;;;;;13.53;8.90;;;;;;;8.14;47.68;100202.66;1755162;81;21090;-62
2021/12/04 12:57:41;;;;;;;15.98;9.28;;;;;;;8.77;46.79;100202.44;1728710;81;21015;-60
2021/12/04 13:14:23;;;;;;;16.48;10.23;;;;;;;10.07;42.35;100183.53;1733365;81;21051;-63
2021/12/04 13:17:03;;;;;;;13.95;9.23;;;;;;;9.40;43.17;100187.95;1752317;79;21484;-60
2021/12/04 13:19:32;;;;;;;14.95;8.88;;;;;;;8.73;44.21;100185.61;1738255;81;21012;-60
2021/12/04 13:22:02;;;;;;;15.68;9.23;;;;;;;8.10;45.26;100185.02;1755470;79;21047;-59
2021/12/04 13:24:33;;;;;;;19.15;10.13;;;;;;;7.61;46.04;100194.58;1737531;79;21061;-59
2021/12/04 13:29:41;;;;;;;16.48;9.50;;;;;;;7.15;47.23;100197.80;1758124;79;21074;-60
2021/12/04 13:32:10;;;;;;;19.20;10.03;;;;;;;6.77;47.84;100193.86;1754276;80;21774;-59
2021/12/04 13:34:38;;;;;;;17.75;9.98;;;;;;;6.39;48.53;100190.25;1754401;80;21111;-60
2021/12/04 13:37:04;;;;;;;20.57;11.78;;;;;;;6.03;49.38;100194.77;1753152;78;21061;-65
2021/12/04 13:39:31;;;;;;;19.37;11.30;;;;;;;5.70;50.16;100195.93;1763812;80;21061;-60
2021/12/04 13:41:58;;;;;;;20.17;12.20;;;;;;;5.43;50.77;100194.57;1776812;78;21120;-59
2021/12/04 13:44:26;;;;;;;17.27;10.45;;;;;;;5.15;51.43;100189.75;1781211;78;21104;-60
2021/12/04 13:47:03;;;;;;;17.67;11.85;;;;;;;4.91;52.05;100194.20;1789343;78;21049;-60
2021/12/04 13:49:39;;;;;;;21.85;12.80;;;;;;;4.70;52.56;100199.38;1779575;78;21626;-59
2021/12/04 13:52:09;;;;;;;19.27;11.70;;;;;;;4.46;53.15;100194.66;1754086;79;25681;-60
2021/12/04 13:54:41;;;;;;;19.10;11.43;;;;;;;4.25;53.76;100193.67;1727785;79;21062;-63
2021/12/04 13:57:10;;;;;;;20.27;11.43;;;;;;;4.08;54.26;100182.91;1775240;78;21489;-64
2021/12/04 13:59:36;;;;;;;23.07;12.20;;;;;;;3.92;54.61;100183.37;1750606;80;21040;-64
2021/12/04 14:02:03;;;;;;;20.82;11.43;;;;;;;3.79;54.97;100181.07;1782252;78;21510;-63
2021/12/04 14:04:29;;;;;;;16.32;11.38;;;;;;;3.70;55.28;100179.81;1776953;79;21241;-63
2021/12/04 14:06:59;;;;;;;25.95;12.45;;;;;;;3.60;55.58;100185.12;1777621;79;21548;-63
2021/12/04 14:09:36;;;;;;;22.48;13.10;;;;;;;3.50;55.82;100182.20;1757243;79;21043;-64
2021/12/04 14:12:03;;;;;;;;;;;;;;;3.40;56.07;100181.84;1763333;80;21105;-65
2021/12/04 14:14:31;;;;;;;21.57;14.23;;;;;;;3.31;56.35;100182.31;1759165;79;20147;-65
2021/12/04 14:17:08;;;;;;;20.70;13.93;;;;;;;3.15;56.68;100187.03;1758844;79;21374;-64
2021/12/04 14:19:36;;;;;;;23.83;14.50;;;;;;;3.08;56.91;100185.68;1757601;79;21035;-66
2021/12/04 14:22:15;;;;;;;28.77;14.03;;;;;;;3.00;57.32;100191.73;1765949;79;21903;-65
2021/12/04 14:24:46;;;;;;;23.07;14.47;;;;;;;2.93;57.51;100192.98;1752708;79;21359;-65
2021/12/04 14:27:18;;;;;;;25.95;15.55;;;;;;;2.82;57.70;100193.50;1762560;79;21074;-64